X  Schlie├čen METAR Luftfahrt Wetterdaten     EDDH Hamburg Helmut Schmidt Airport
Temperatur
0°C Temperatur
-1°C Taupunkt
93% Feuchtigkeit



Wind
5 KM/S
3 MPS
1 M/S
3 KTS



100°
O
Aktuelle Wetterlage

Leicht  Schnee, Nebel Leicht Schnee, Nebel
Luftdruck 1010.84 (hPa) - 29.85 (inHg)
Sichtweite 1.1 (Meile) - 1.7 (Km)
Flughafen
Flughafen Code EDDH

Position : Hamburg Helmut Schmidt Airport
Entfernung: 11 (Km)

Metar:
EDDH 060920Z AUTO 10003KT 050V130 1700 1200 R23/P2000N R15/P2000N -SN BR BKN003 M00/M01 Q1011

Zeit: 06-12-2023 10:20 CET